sensor_id;sensor_type;location;lat;lon;timestamp;P1;durP1;ratioP1;P2;durP2;ratioP2
13481;SDS011;6813;60.352;15.746;2022-08-25T00:00:57;2.33;;;1.45;;
13481;SDS011;6813;60.352;15.746;2022-08-25T00:03:24;2.60;;;1.58;;
13481;SDS011;6813;60.352;15.746;2022-08-25T00:05:49;2.08;;;1.40;;
13481;SDS011;6813;60.352;15.746;2022-08-25T00:08:15;1.98;;;1.35;;
13481;SDS011;6813;60.352;15.746;2022-08-25T00:10:41;2.58;;;1.70;;
13481;SDS011;6813;60.352;15.746;2022-08-25T00:13:07;2.25;;;1.33;;
13481;SDS011;6813;60.352;15.746;2022-08-25T00:15:33;2.17;;;1.42;;
13481;SDS011;6813;60.352;15.746;2022-08-25T00:18:00;1.45;;;1.35;;
13481;SDS011;6813;60.352;15.746;2022-08-25T00:20:27;1.70;;;1.58;;
13481;SDS011;6813;60.352;15.746;2022-08-25T00:22:56;3.05;;;1.40;;
13481;SDS011;6813;60.352;15.746;2022-08-25T00:25:24;2.83;;;1.60;;
13481;SDS011;6813;60.352;15.746;2022-08-25T00:27:51;2.80;;;1.88;;
13481;SDS011;6813;60.352;15.746;2022-08-25T00:30:17;3.33;;;1.52;;
13481;SDS011;6813;60.352;15.746;2022-08-25T00:32:44;1.77;;;1.50;;
13481;SDS011;6813;60.352;15.746;2022-08-25T00:35:10;7.90;;;1.73;;
13481;SDS011;6813;60.352;15.746;2022-08-25T00:37:37;1.60;;;1.50;;
13481;SDS011;6813;60.352;15.746;2022-08-25T00:40:03;1.88;;;1.45;;
13481;SDS011;6813;60.352;15.746;2022-08-25T00:42:30;1.75;;;1.65;;
13481;SDS011;6813;60.352;15.746;2022-08-25T00:44:57;2.25;;;1.70;;
13481;SDS011;6813;60.352;15.746;2022-08-25T00:47:23;2.90;;;1.70;;
13481;SDS011;6813;60.352;15.746;2022-08-25T00:49:54;1.73;;;1.50;;
13481;SDS011;6813;60.352;15.746;2022-08-25T00:52:33;2.88;;;1.42;;
13481;SDS011;6813;60.352;15.746;2022-08-25T00:55:15;4.22;;;1.52;;
13481;SDS011;6813;60.352;15.746;2022-08-25T00:57:47;1.95;;;1.45;;
13481;SDS011;6813;60.352;15.746;2022-08-25T01:00:20;2.35;;;1.55;;
13481;SDS011;6813;60.352;15.746;2022-08-25T01:02:50;2.15;;;1.65;;
13481;SDS011;6813;60.352;15.746;2022-08-25T01:05:17;1.70;;;1.60;;
13481;SDS011;6813;60.352;15.746;2022-08-25T01:07:43;1.80;;;1.60;;
13481;SDS011;6813;60.352;15.746;2022-08-25T01:10:10;1.85;;;1.58;;
13481;SDS011;6813;60.352;15.746;2022-08-25T01:12:37;1.40;;;1.40;;
13481;SDS011;6813;60.352;15.746;2022-08-25T01:15:04;1.50;;;1.40;;
13481;SDS011;6813;60.352;15.746;2022-08-25T01:17:34;1.77;;;1.65;;
13481;SDS011;6813;60.352;15.746;2022-08-25T01:20:08;4.22;;;1.60;;
13481;SDS011;6813;60.352;15.746;2022-08-25T01:22:34;2.58;;;1.50;;
13481;SDS011;6813;60.352;15.746;2022-08-25T01:25:02;2.90;;;1.52;;
13481;SDS011;6813;60.352;15.746;2022-08-25T01:27:38;2.83;;;1.67;;
13481;SDS011;6813;60.352;15.746;2022-08-25T01:30:04;1.38;;;1.27;;
13481;SDS011;6813;60.352;15.746;2022-08-25T01:32:32;4.35;;;2.03;;
13481;SDS011;6813;60.352;15.746;2022-08-25T01:34:59;2.42;;;1.67;;
13481;SDS011;6813;60.352;15.746;2022-08-25T01:37:26;1.92;;;1.65;;
13481;SDS011;6813;60.352;15.746;2022-08-25T01:39:52;3.15;;;1.90;;
13481;SDS011;6813;60.352;15.746;2022-08-25T01:42:22;2.53;;;1.55;;
13481;SDS011;6813;60.352;15.746;2022-08-25T01:44:57;3.67;;;1.92;;
13481;SDS011;6813;60.352;15.746;2022-08-25T01:47:23;3.85;;;1.60;;
13481;SDS011;6813;60.352;15.746;2022-08-25T01:49:49;2.00;;;1.77;;
13481;SDS011;6813;60.352;15.746;2022-08-25T01:52:27;1.50;;;1.40;;
13481;SDS011;6813;60.352;15.746;2022-08-25T01:55:19;1.60;;;1.50;;
13481;SDS011;6813;60.352;15.746;2022-08-25T01:57:45;2.05;;;1.40;;
13481;SDS011;6813;60.352;15.746;2022-08-25T02:00:12;1.67;;;1.58;;
13481;SDS011;6813;60.352;15.746;2022-08-25T02:02:39;3.25;;;1.92;;
13481;SDS011;6813;60.352;15.746;2022-08-25T02:05:07;2.05;;;1.60;;
13481;SDS011;6813;60.352;15.746;2022-08-25T02:07:34;1.92;;;1.40;;
13481;SDS011;6813;60.352;15.746;2022-08-25T02:10:02;3.28;;;1.60;;
13481;SDS011;6813;60.352;15.746;2022-08-25T02:12:30;2.63;;;1.73;;
13481;SDS011;6813;60.352;15.746;2022-08-25T02:14:57;4.28;;;2.40;;
13481;SDS011;6813;60.352;15.746;2022-08-25T02:17:26;3.65;;;3.00;;
13481;SDS011;6813;60.352;15.746;2022-08-25T02:19:52;2.50;;;2.30;;
13481;SDS011;6813;60.352;15.746;2022-08-25T02:22:20;2.10;;;1.80;;
13481;SDS011;6813;60.352;15.746;2022-08-25T02:24:45;3.78;;;1.70;;
13481;SDS011;6813;60.352;15.746;2022-08-25T02:27:12;2.33;;;1.58;;
13481;SDS011;6813;60.352;15.746;2022-08-25T02:29:37;2.75;;;1.70;;
13481;SDS011;6813;60.352;15.746;2022-08-25T02:32:03;5.40;;;2.03;;
13481;SDS011;6813;60.352;15.746;2022-08-25T02:34:29;2.67;;;1.60;;
13481;SDS011;6813;60.352;15.746;2022-08-25T02:36:55;1.80;;;1.70;;
13481;SDS011;6813;60.352;15.746;2022-08-25T02:39:21;1.77;;;1.67;;
13481;SDS011;6813;60.352;15.746;2022-08-25T02:41:47;1.80;;;1.47;;
13481;SDS011;6813;60.352;15.746;2022-08-25T02:44:13;5.65;;;1.73;;
13481;SDS011;6813;60.352;15.746;2022-08-25T02:46:39;1.85;;;1.75;;
13481;SDS011;6813;60.352;15.746;2022-08-25T02:49:05;2.30;;;1.73;;
13481;SDS011;6813;60.352;15.746;2022-08-25T02:51:32;2.17;;;1.93;;
13481;SDS011;6813;60.352;15.746;2022-08-25T02:53:59;2.50;;;1.63;;
13481;SDS011;6813;60.352;15.746;2022-08-25T02:56:27;2.00;;;1.80;;
13481;SDS011;6813;60.352;15.746;2022-08-25T02:58:54;1.90;;;1.70;;
13481;SDS011;6813;60.352;15.746;2022-08-25T03:01:21;2.95;;;1.80;;
13481;SDS011;6813;60.352;15.746;2022-08-25T03:03:48;2.08;;;1.75;;
13481;SDS011;6813;60.352;15.746;2022-08-25T03:06:18;2.47;;;1.80;;
13481;SDS011;6813;60.352;15.746;2022-08-25T03:08:48;2.40;;;2.00;;
13481;SDS011;6813;60.352;15.746;2022-08-25T03:11:14;3.83;;;2.17;;
13481;SDS011;6813;60.352;15.746;2022-08-25T03:13:41;3.00;;;2.07;;
13481;SDS011;6813;60.352;15.746;2022-08-25T03:16:07;1.90;;;1.80;;
13481;SDS011;6813;60.352;15.746;2022-08-25T03:18:34;2.57;;;1.80;;
13481;SDS011;6813;60.352;15.746;2022-08-25T03:21:00;2.87;;;2.00;;
13481;SDS011;6813;60.352;15.746;2022-08-25T03:23:27;2.10;;;1.70;;
13481;SDS011;6813;60.352;15.746;2022-08-25T03:25:53;2.70;;;1.90;;
13481;SDS011;6813;60.352;15.746;2022-08-25T03:28:38;2.03;;;1.87;;
13481;SDS011;6813;60.352;15.746;2022-08-25T03:31:05;2.00;;;1.73;;
13481;SDS011;6813;60.352;15.746;2022-08-25T03:33:32;4.73;;;2.10;;
13481;SDS011;6813;60.352;15.746;2022-08-25T03:35:59;5.87;;;1.60;;
13481;SDS011;6813;60.352;15.746;2022-08-25T03:38:25;2.17;;;2.03;;
13481;SDS011;6813;60.352;15.746;2022-08-25T03:40:51;2.00;;;1.80;;
13481;SDS011;6813;60.352;15.746;2022-08-25T03:43:18;2.47;;;2.00;;
13481;SDS011;6813;60.352;15.746;2022-08-25T03:45:46;1.80;;;1.50;;
13481;SDS011;6813;60.352;15.746;2022-08-25T03:48:13;2.17;;;1.90;;
13481;SDS011;6813;60.352;15.746;2022-08-25T03:50:44;1.83;;;1.73;;
13481;SDS011;6813;60.352;15.746;2022-08-25T03:53:13;2.10;;;1.87;;
13481;SDS011;6813;60.352;15.746;2022-08-25T03:55:39;2.03;;;1.70;;
13481;SDS011;6813;60.352;15.746;2022-08-25T03:58:05;2.17;;;1.53;;
13481;SDS011;6813;60.352;15.746;2022-08-25T04:00:31;2.80;;;1.97;;
13481;SDS011;6813;60.352;15.746;2022-08-25T04:02:57;2.00;;;1.80;;
13481;SDS011;6813;60.352;15.746;2022-08-25T04:05:23;2.93;;;1.37;;
13481;SDS011;6813;60.352;15.746;2022-08-25T04:07:48;2.37;;;1.40;;
13481;SDS011;6813;60.352;15.746;2022-08-25T04:10:14;2.73;;;1.50;;
13481;SDS011;6813;60.352;15.746;2022-08-25T04:12:41;2.10;;;1.93;;
13481;SDS011;6813;60.352;15.746;2022-08-25T04:15:07;2.03;;;1.60;;
13481;SDS011;6813;60.352;15.746;2022-08-25T04:17:35;1.53;;;1.40;;
13481;SDS011;6813;60.352;15.746;2022-08-25T04:20:03;1.53;;;1.43;;
13481;SDS011;6813;60.352;15.746;2022-08-25T04:22:30;1.50;;;1.40;;
13481;SDS011;6813;60.352;15.746;2022-08-25T04:24:57;1.77;;;1.67;;
13481;SDS011;6813;60.352;15.746;2022-08-25T04:27:23;2.10;;;1.90;;
13481;SDS011;6813;60.352;15.746;2022-08-25T04:29:49;1.90;;;1.80;;
13481;SDS011;6813;60.352;15.746;2022-08-25T04:32:15;1.97;;;1.80;;
13481;SDS011;6813;60.352;15.746;2022-08-25T04:34:41;2.00;;;1.53;;
13481;SDS011;6813;60.352;15.746;2022-08-25T04:37:07;2.87;;;1.60;;
13481;SDS011;6813;60.352;15.746;2022-08-25T04:39:33;1.87;;;1.77;;
13481;SDS011;6813;60.352;15.746;2022-08-25T04:41:59;2.00;;;1.60;;
13481;SDS011;6813;60.352;15.746;2022-08-25T04:44:27;3.30;;;1.33;;
13481;SDS011;6813;60.352;15.746;2022-08-25T04:46:54;1.87;;;1.70;;
13481;SDS011;6813;60.352;15.746;2022-08-25T04:49:19;2.47;;;1.97;;
13481;SDS011;6813;60.352;15.746;2022-08-25T04:51:45;2.27;;;1.80;;
13481;SDS011;6813;60.352;15.746;2022-08-25T04:54:12;2.63;;;1.90;;
13481;SDS011;6813;60.352;15.746;2022-08-25T04:56:46;1.70;;;1.60;;
13481;SDS011;6813;60.352;15.746;2022-08-25T04:59:14;2.20;;;2.00;;
13481;SDS011;6813;60.352;15.746;2022-08-25T05:01:41;1.80;;;1.70;;
13481;SDS011;6813;60.352;15.746;2022-08-25T05:04:09;4.80;;;1.90;;
13481;SDS011;6813;60.352;15.746;2022-08-25T05:06:39;1.88;;;1.63;;
13481;SDS011;6813;60.352;15.746;2022-08-25T05:09:06;3.20;;;1.65;;
13481;SDS011;6813;60.352;15.746;2022-08-25T05:11:31;3.95;;;1.65;;
13481;SDS011;6813;60.352;15.746;2022-08-25T05:13:58;2.53;;;1.80;;
13481;SDS011;6813;60.352;15.746;2022-08-25T05:16:25;4.03;;;1.80;;
13481;SDS011;6813;60.352;15.746;2022-08-25T05:18:52;1.83;;;1.70;;
13481;SDS011;6813;60.352;15.746;2022-08-25T05:21:20;3.63;;;1.70;;
13481;SDS011;6813;60.352;15.746;2022-08-25T05:23:48;2.67;;;1.60;;
13481;SDS011;6813;60.352;15.746;2022-08-25T05:26:16;1.52;;;1.38;;
13481;SDS011;6813;60.352;15.746;2022-08-25T05:28:45;4.03;;;1.40;;
13481;SDS011;6813;60.352;15.746;2022-08-25T05:31:15;3.30;;;1.80;;
13481;SDS011;6813;60.352;15.746;2022-08-25T05:33:41;3.13;;;1.70;;
13481;SDS011;6813;60.352;15.746;2022-08-25T05:36:09;2.05;;;1.40;;
13481;SDS011;6813;60.352;15.746;2022-08-25T05:38:36;2.45;;;1.50;;
13481;SDS011;6813;60.352;15.746;2022-08-25T05:41:06;6.43;;;2.20;;
13481;SDS011;6813;60.352;15.746;2022-08-25T05:43:35;2.85;;;1.67;;
13481;SDS011;6813;60.352;15.746;2022-08-25T05:46:02;3.10;;;1.80;;
13481;SDS011;6813;60.352;15.746;2022-08-25T05:48:28;1.80;;;1.60;;
13481;SDS011;6813;60.352;15.746;2022-08-25T05:50:55;4.80;;;1.60;;
13481;SDS011;6813;60.352;15.746;2022-08-25T05:53:22;1.80;;;1.70;;
13481;SDS011;6813;60.352;15.746;2022-08-25T05:55:49;2.88;;;1.67;;
13481;SDS011;6813;60.352;15.746;2022-08-25T05:58:16;3.80;;;1.65;;
13481;SDS011;6813;60.352;15.746;2022-08-25T06:00:42;1.75;;;1.55;;
13481;SDS011;6813;60.352;15.746;2022-08-25T06:03:08;2.80;;;1.45;;
13481;SDS011;6813;60.352;15.746;2022-08-25T06:05:33;3.35;;;2.15;;
13481;SDS011;6813;60.352;15.746;2022-08-25T06:07:59;2.90;;;1.38;;
13481;SDS011;6813;60.352;15.746;2022-08-25T06:10:25;2.92;;;1.50;;
13481;SDS011;6813;60.352;15.746;2022-08-25T06:12:51;3.30;;;1.45;;
13481;SDS011;6813;60.352;15.746;2022-08-25T06:15:18;4.63;;;1.42;;
13481;SDS011;6813;60.352;15.746;2022-08-25T06:17:46;3.03;;;1.23;;
13481;SDS011;6813;60.352;15.746;2022-08-25T06:20:17;2.20;;;1.50;;
13481;SDS011;6813;60.352;15.746;2022-08-25T06:22:44;2.92;;;1.40;;
13481;SDS011;6813;60.352;15.746;2022-08-25T06:25:12;1.85;;;1.55;;
13481;SDS011;6813;60.352;15.746;2022-08-25T06:27:40;3.30;;;1.60;;
13481;SDS011;6813;60.352;15.746;2022-08-25T06:30:06;3.88;;;1.70;;
13481;SDS011;6813;60.352;15.746;2022-08-25T06:32:34;2.50;;;1.52;;
13481;SDS011;6813;60.352;15.746;2022-08-25T06:35:02;1.70;;;1.60;;
13481;SDS011;6813;60.352;15.746;2022-08-25T06:37:29;1.73;;;1.40;;
13481;SDS011;6813;60.352;15.746;2022-08-25T06:39:54;1.70;;;1.60;;
13481;SDS011;6813;60.352;15.746;2022-08-25T06:42:20;2.30;;;1.70;;
13481;SDS011;6813;60.352;15.746;2022-08-25T06:44:46;1.55;;;1.42;;
13481;SDS011;6813;60.352;15.746;2022-08-25T06:47:12;2.40;;;1.30;;
13481;SDS011;6813;60.352;15.746;2022-08-25T06:49:41;2.42;;;1.33;;
13481;SDS011;6813;60.352;15.746;2022-08-25T06:52:08;2.08;;;1.80;;
13481;SDS011;6813;60.352;15.746;2022-08-25T06:54:35;4.40;;;1.83;;
13481;SDS011;6813;60.352;15.746;2022-08-25T06:57:01;2.72;;;1.88;;
13481;SDS011;6813;60.352;15.746;2022-08-25T06:59:27;1.80;;;1.70;;
13481;SDS011;6813;60.352;15.746;2022-08-25T07:01:52;1.80;;;1.70;;
13481;SDS011;6813;60.352;15.746;2022-08-25T07:04:18;2.72;;;1.70;;
13481;SDS011;6813;60.352;15.746;2022-08-25T07:06:44;3.47;;;2.03;;
13481;SDS011;6813;60.352;15.746;2022-08-25T07:09:10;3.88;;;1.92;;
13481;SDS011;6813;60.352;15.746;2022-08-25T07:11:38;2.92;;;1.92;;
13481;SDS011;6813;60.352;15.746;2022-08-25T07:14:08;3.80;;;2.10;;
13481;SDS011;6813;60.352;15.746;2022-08-25T07:16:36;2.60;;;1.80;;
13481;SDS011;6813;60.352;15.746;2022-08-25T07:19:02;2.40;;;1.90;;
13481;SDS011;6813;60.352;15.746;2022-08-25T07:21:30;5.22;;;2.03;;
13481;SDS011;6813;60.352;15.746;2022-08-25T07:23:58;2.28;;;1.90;;
13481;SDS011;6813;60.352;15.746;2022-08-25T07:26:26;1.67;;;1.50;;
13481;SDS011;6813;60.352;15.746;2022-08-25T07:28:54;2.10;;;1.80;;
13481;SDS011;6813;60.352;15.746;2022-08-25T07:31:22;2.08;;;1.80;;
13481;SDS011;6813;60.352;15.746;2022-08-25T07:33:48;3.70;;;1.90;;
13481;SDS011;6813;60.352;15.746;2022-08-25T07:36:33;5.10;;;2.17;;
13481;SDS011;6813;60.352;15.746;2022-08-25T07:39:00;4.20;;;2.28;;
13481;SDS011;6813;60.352;15.746;2022-08-25T07:41:30;5.68;;;2.60;;
13481;SDS011;6813;60.352;15.746;2022-08-25T07:43:59;3.50;;;2.60;;
13481;SDS011;6813;60.352;15.746;2022-08-25T07:46:25;6.55;;;2.67;;
13481;SDS011;6813;60.352;15.746;2022-08-25T07:48:51;2.78;;;2.15;;
13481;SDS011;6813;60.352;15.746;2022-08-25T07:51:17;2.65;;;2.25;;
13481;SDS011;6813;60.352;15.746;2022-08-25T07:53:43;2.17;;;1.95;;
13481;SDS011;6813;60.352;15.746;2022-08-25T07:56:10;2.35;;;1.60;;
13481;SDS011;6813;60.352;15.746;2022-08-25T07:58:38;3.05;;;1.77;;
13481;SDS011;6813;60.352;15.746;2022-08-25T08:01:04;2.58;;;1.85;;
13481;SDS011;6813;60.352;15.746;2022-08-25T08:03:31;2.15;;;1.90;;
13481;SDS011;6813;60.352;15.746;2022-08-25T08:05:58;2.88;;;1.67;;
13481;SDS011;6813;60.352;15.746;2022-08-25T08:08:25;1.55;;;1.42;;
13481;SDS011;6813;60.352;15.746;2022-08-25T08:10:51;1.55;;;1.45;;
13481;SDS011;6813;60.352;15.746;2022-08-25T08:13:17;1.85;;;1.65;;
13481;SDS011;6813;60.352;15.746;2022-08-25T08:15:44;5.75;;;1.88;;
13481;SDS011;6813;60.352;15.746;2022-08-25T08:18:10;5.78;;;1.95;;
13481;SDS011;6813;60.352;15.746;2022-08-25T08:20:36;2.33;;;1.88;;
13481;SDS011;6813;60.352;15.746;2022-08-25T08:23:02;4.75;;;1.73;;
13481;SDS011;6813;60.352;15.746;2022-08-25T08:25:28;2.83;;;1.80;;
13481;SDS011;6813;60.352;15.746;2022-08-25T08:27:54;2.28;;;1.70;;
13481;SDS011;6813;60.352;15.746;2022-08-25T08:30:21;2.42;;;1.70;;
13481;SDS011;6813;60.352;15.746;2022-08-25T08:32:47;2.28;;;1.90;;
13481;SDS011;6813;60.352;15.746;2022-08-25T08:35:14;3.40;;;2.13;;
13481;SDS011;6813;60.352;15.746;2022-08-25T08:37:43;3.03;;;1.90;;
13481;SDS011;6813;60.352;15.746;2022-08-25T08:40:16;3.67;;;1.90;;
13481;SDS011;6813;60.352;15.746;2022-08-25T08:45:25;5.43;;;2.00;;
13481;SDS011;6813;60.352;15.746;2022-08-25T08:53:56;2.00;;;1.60;;
13481;SDS011;6813;60.352;15.746;2022-08-25T08:56:38;3.72;;;1.70;;
13481;SDS011;6813;60.352;15.746;2022-08-25T08:59:21;4.30;;;1.98;;
13481;SDS011;6813;60.352;15.746;2022-08-25T09:01:51;5.25;;;1.90;;
13481;SDS011;6813;60.352;15.746;2022-08-25T09:07:18;3.22;;;1.70;;
13481;SDS011;6813;60.352;15.746;2022-08-25T09:10:06;2.47;;;2.28;;
13481;SDS011;6813;60.352;15.746;2022-08-25T09:12:42;3.55;;;2.67;;
13481;SDS011;6813;60.352;15.746;2022-08-25T09:15:27;3.15;;;1.88;;
13481;SDS011;6813;60.352;15.746;2022-08-25T09:18:44;2.10;;;1.80;;
13481;SDS011;6813;60.352;15.746;2022-08-25T09:21:13;3.58;;;1.80;;
13481;SDS011;6813;60.352;15.746;2022-08-25T09:26:33;4.43;;;2.00;;
13481;SDS011;6813;60.352;15.746;2022-08-25T09:29:07;2.90;;;1.90;;
13481;SDS011;6813;60.352;15.746;2022-08-25T09:31:38;4.60;;;1.63;;
13481;SDS011;6813;60.352;15.746;2022-08-25T09:34:10;3.08;;;1.85;;
13481;SDS011;6813;60.352;15.746;2022-08-25T09:36:39;2.28;;;1.75;;
13481;SDS011;6813;60.352;15.746;2022-08-25T09:39:05;3.70;;;1.80;;
13481;SDS011;6813;60.352;15.746;2022-08-25T09:44:20;3.63;;;1.67;;
13481;SDS011;6813;60.352;15.746;2022-08-25T09:47:06;4.35;;;1.70;;
13481;SDS011;6813;60.352;15.746;2022-08-25T10:11:08;4.30;;;1.60;;
13481;SDS011;6813;60.352;15.746;2022-08-25T10:13:39;2.50;;;1.23;;
13481;SDS011;6813;60.352;15.746;2022-08-25T10:16:27;2.83;;;1.40;;
13481;SDS011;6813;60.352;15.746;2022-08-25T10:19:06;2.97;;;1.40;;
13481;SDS011;6813;60.352;15.746;2022-08-25T10:21:39;4.10;;;1.50;;
13481;SDS011;6813;60.352;15.746;2022-08-25T10:24:08;2.88;;;1.55;;
13481;SDS011;6813;60.352;15.746;2022-08-25T10:26:53;2.45;;;1.52;;
13481;SDS011;6813;60.352;15.746;2022-08-25T10:34:49;1.40;;;1.17;;
13481;SDS011;6813;60.352;15.746;2022-08-25T10:40:09;2.55;;;1.15;;
13481;SDS011;6813;60.352;15.746;2022-08-25T10:45:30;2.88;;;1.40;;
13481;SDS011;6813;60.352;15.746;2022-08-25T11:04:30;3.35;;;1.10;;
13481;SDS011;6813;60.352;15.746;2022-08-25T11:07:03;2.28;;;1.48;;
13481;SDS011;6813;60.352;15.746;2022-08-25T11:09:37;2.67;;;1.10;;
13481;SDS011;6813;60.352;15.746;2022-08-25T11:12:16;2.28;;;1.13;;
13481;SDS011;6813;60.352;15.746;2022-08-25T11:15:23;1.95;;;1.02;;
13481;SDS011;6813;60.352;15.746;2022-08-25T11:18:01;2.75;;;1.10;;
13481;SDS011;6813;60.352;15.746;2022-08-25T11:20:31;2.75;;;1.20;;
13481;SDS011;6813;60.352;15.746;2022-08-25T11:23:10;1.20;;;1.02;;
13481;SDS011;6813;60.352;15.746;2022-08-25T11:25:43;2.80;;;1.00;;
13481;SDS011;6813;60.352;15.746;2022-08-25T11:28:12;1.67;;;1.13;;
13481;SDS011;6813;60.352;15.746;2022-08-25T11:30:55;2.05;;;1.10;;
13481;SDS011;6813;60.352;15.746;2022-08-25T11:33:24;3.20;;;1.52;;
13481;SDS011;6813;60.352;15.746;2022-08-25T11:35:53;1.23;;;1.00;;
13481;SDS011;6813;60.352;15.746;2022-08-25T11:50:32;1.45;;;1.15;;
13481;SDS011;6813;60.352;15.746;2022-08-25T11:52:53;1.88;;;0.90;;
13481;SDS011;6813;60.352;15.746;2022-08-25T11:55:44;2.75;;;1.50;;
13481;SDS011;6813;60.352;15.746;2022-08-25T12:00:56;3.35;;;1.35;;
13481;SDS011;6813;60.352;15.746;2022-08-25T12:08:51;1.98;;;1.40;;
13481;SDS011;6813;60.352;15.746;2022-08-25T12:19:28;2.53;;;1.23;;
13481;SDS011;6813;60.352;15.746;2022-08-25T12:25:13;2.55;;;1.10;;
13481;SDS011;6813;60.352;15.746;2022-08-25T12:38:29;2.78;;;1.25;;
13481;SDS011;6813;60.352;15.746;2022-08-25T12:43:35;2.53;;;1.00;;
13481;SDS011;6813;60.352;15.746;2022-08-25T12:54:21;1.45;;;1.08;;
13481;SDS011;6813;60.352;15.746;2022-08-25T12:57:18;3.10;;;1.20;;
13481;SDS011;6813;60.352;15.746;2022-08-25T13:00:09;3.85;;;1.10;;
13481;SDS011;6813;60.352;15.746;2022-08-25T13:14:03;1.27;;;1.08;;
13481;SDS011;6813;60.352;15.746;2022-08-25T13:16:38;1.67;;;1.35;;
13481;SDS011;6813;60.352;15.746;2022-08-25T13:19:05;2.53;;;1.15;;
13481;SDS011;6813;60.352;15.746;2022-08-25T13:21:42;4.72;;;1.25;;
13481;SDS011;6813;60.352;15.746;2022-08-25T13:24:10;1.20;;;1.10;;
13481;SDS011;6813;60.352;15.746;2022-08-25T13:26:49;2.53;;;1.50;;
13481;SDS011;6813;60.352;15.746;2022-08-25T13:29:21;4.38;;;1.17;;
13481;SDS011;6813;60.352;15.746;2022-08-25T13:31:56;2.80;;;1.38;;
13481;SDS011;6813;60.352;15.746;2022-08-25T13:34:28;2.58;;;1.42;;
13481;SDS011;6813;60.352;15.746;2022-08-25T13:37:06;1.35;;;1.15;;
13481;SDS011;6813;60.352;15.746;2022-08-25T13:40:11;1.38;;;1.15;;
13481;SDS011;6813;60.352;15.746;2022-08-25T13:43:02;1.98;;;1.40;;
13481;SDS011;6813;60.352;15.746;2022-08-25T13:45:43;1.70;;;1.17;;
13481;SDS011;6813;60.352;15.746;2022-08-25T13:48:11;1.60;;;1.17;;
13481;SDS011;6813;60.352;15.746;2022-08-25T13:50:38;1.42;;;1.30;;
13481;SDS011;6813;60.352;15.746;2022-08-25T13:53:14;1.30;;;1.10;;
13481;SDS011;6813;60.352;15.746;2022-08-25T13:55:48;1.08;;;1.00;;
13481;SDS011;6813;60.352;15.746;2022-08-25T13:58:15;1.85;;;1.38;;
13481;SDS011;6813;60.352;15.746;2022-08-25T14:00:45;2.53;;;1.50;;
13481;SDS011;6813;60.352;15.746;2022-08-25T14:03:29;2.00;;;1.27;;
13481;SDS011;6813;60.352;15.746;2022-08-25T14:06:08;1.10;;;1.00;;
13481;SDS011;6813;60.352;15.746;2022-08-25T14:08:44;1.75;;;1.30;;
13481;SDS011;6813;60.352;15.746;2022-08-25T14:11:58;3.92;;;1.42;;
13481;SDS011;6813;60.352;15.746;2022-08-25T14:16:57;3.22;;;1.45;;
13481;SDS011;6813;60.352;15.746;2022-08-25T14:19:26;1.35;;;1.17;;
13481;SDS011;6813;60.352;15.746;2022-08-25T14:21:52;1.85;;;1.30;;
13481;SDS011;6813;60.352;15.746;2022-08-25T14:24:23;2.25;;;1.50;;
13481;SDS011;6813;60.352;15.746;2022-08-25T14:26:51;1.88;;;1.30;;
13481;SDS011;6813;60.352;15.746;2022-08-25T14:29:17;4.03;;;1.60;;
13481;SDS011;6813;60.352;15.746;2022-08-25T14:31:44;3.60;;;1.42;;
13481;SDS011;6813;60.352;15.746;2022-08-25T14:34:17;2.83;;;1.15;;
13481;SDS011;6813;60.352;15.746;2022-08-25T14:36:45;1.65;;;1.50;;
13481;SDS011;6813;60.352;15.746;2022-08-25T14:39:12;2.47;;;1.40;;
13481;SDS011;6813;60.352;15.746;2022-08-25T14:41:40;1.38;;;1.25;;
13481;SDS011;6813;60.352;15.746;2022-08-25T14:44:08;2.28;;;1.38;;
13481;SDS011;6813;60.352;15.746;2022-08-25T14:46:40;2.35;;;1.50;;
13481;SDS011;6813;60.352;15.746;2022-08-25T14:49:29;4.05;;;1.33;;
13481;SDS011;6813;60.352;15.746;2022-08-25T14:52:09;3.17;;;1.65;;
13481;SDS011;6813;60.352;15.746;2022-08-25T14:54:42;1.00;;;1.00;;
13481;SDS011;6813;60.352;15.746;2022-08-25T14:57:08;1.50;;;1.20;;
13481;SDS011;6813;60.352;15.746;2022-08-25T14:59:34;3.63;;;1.60;;
13481;SDS011;6813;60.352;15.746;2022-08-25T15:02:00;2.58;;;1.50;;
13481;SDS011;6813;60.352;15.746;2022-08-25T15:04:27;2.22;;;1.65;;
13481;SDS011;6813;60.352;15.746;2022-08-25T15:06:54;1.88;;;1.23;;
13481;SDS011;6813;60.352;15.746;2022-08-25T15:09:22;3.38;;;1.55;;
13481;SDS011;6813;60.352;15.746;2022-08-25T15:11:52;1.90;;;1.55;;
13481;SDS011;6813;60.352;15.746;2022-08-25T15:14:22;2.58;;;1.40;;
13481;SDS011;6813;60.352;15.746;2022-08-25T15:16:51;3.10;;;1.45;;
13481;SDS011;6813;60.352;15.746;2022-08-25T15:19:21;2.63;;;1.40;;
13481;SDS011;6813;60.352;15.746;2022-08-25T15:21:49;2.90;;;1.40;;
13481;SDS011;6813;60.352;15.746;2022-08-25T15:24:15;1.65;;;1.30;;
13481;SDS011;6813;60.352;15.746;2022-08-25T15:26:47;3.92;;;1.58;;
13481;SDS011;6813;60.352;15.746;2022-08-25T15:29:19;2.65;;;1.60;;
13481;SDS011;6813;60.352;15.746;2022-08-25T15:31:47;3.60;;;1.60;;
13481;SDS011;6813;60.352;15.746;2022-08-25T15:34:13;1.80;;;1.40;;
13481;SDS011;6813;60.352;15.746;2022-08-25T15:36:39;2.67;;;1.63;;
13481;SDS011;6813;60.352;15.746;2022-08-25T15:39:05;2.67;;;1.23;;
13481;SDS011;6813;60.352;15.746;2022-08-25T15:41:31;3.33;;;1.77;;
13481;SDS011;6813;60.352;15.746;2022-08-25T15:43:58;2.05;;;1.48;;
13481;SDS011;6813;60.352;15.746;2022-08-25T15:46:24;2.97;;;1.30;;
13481;SDS011;6813;60.352;15.746;2022-08-25T15:48:54;2.05;;;1.42;;
13481;SDS011;6813;60.352;15.746;2022-08-25T15:51:22;2.45;;;1.50;;
13481;SDS011;6813;60.352;15.746;2022-08-25T15:53:49;2.47;;;1.02;;
13481;SDS011;6813;60.352;15.746;2022-08-25T15:56:15;3.15;;;1.20;;
13481;SDS011;6813;60.352;15.746;2022-08-25T15:58:43;1.75;;;1.13;;
13481;SDS011;6813;60.352;15.746;2022-08-25T16:01:15;2.35;;;1.60;;
13481;SDS011;6813;60.352;15.746;2022-08-25T16:03:42;1.50;;;1.33;;
13481;SDS011;6813;60.352;15.746;2022-08-25T16:06:09;1.92;;;1.20;;
13481;SDS011;6813;60.352;15.746;2022-08-25T16:08:36;1.60;;;1.17;;
13481;SDS011;6813;60.352;15.746;2022-08-25T16:11:03;1.35;;;1.15;;
13481;SDS011;6813;60.352;15.746;2022-08-25T16:13:29;1.40;;;0.90;;
13481;SDS011;6813;60.352;15.746;2022-08-25T16:15:57;3.65;;;1.23;;
13481;SDS011;6813;60.352;15.746;2022-08-25T16:18:24;3.88;;;1.13;;
13481;SDS011;6813;60.352;15.746;2022-08-25T16:20:51;3.20;;;1.30;;
13481;SDS011;6813;60.352;15.746;2022-08-25T16:23:19;1.50;;;1.30;;
13481;SDS011;6813;60.352;15.746;2022-08-25T16:25:45;1.77;;;1.02;;
13481;SDS011;6813;60.352;15.746;2022-08-25T16:28:15;1.20;;;1.00;;
13481;SDS011;6813;60.352;15.746;2022-08-25T16:30:47;3.20;;;1.17;;
13481;SDS011;6813;60.352;15.746;2022-08-25T16:33:14;1.40;;;1.13;;
13481;SDS011;6813;60.352;15.746;2022-08-25T16:35:41;1.85;;;1.20;;
13481;SDS011;6813;60.352;15.746;2022-08-25T16:38:08;2.88;;;1.20;;
13481;SDS011;6813;60.352;15.746;2022-08-25T16:40:39;2.10;;;1.10;;
13481;SDS011;6813;60.352;15.746;2022-08-25T16:43:06;2.03;;;1.00;;
13481;SDS011;6813;60.352;15.746;2022-08-25T16:45:33;1.42;;;1.15;;
13481;SDS011;6813;60.352;15.746;2022-08-25T16:47:59;2.28;;;1.02;;
13481;SDS011;6813;60.352;15.746;2022-08-25T16:50:26;2.30;;;1.20;;
13481;SDS011;6813;60.352;15.746;2022-08-25T16:52:54;2.25;;;1.20;;
13481;SDS011;6813;60.352;15.746;2022-08-25T16:55:39;2.42;;;1.35;;
13481;SDS011;6813;60.352;15.746;2022-08-25T16:58:05;1.58;;;1.00;;
13481;SDS011;6813;60.352;15.746;2022-08-25T17:00:32;1.23;;;1.00;;
13481;SDS011;6813;60.352;15.746;2022-08-25T17:03:01;1.80;;;1.20;;
13481;SDS011;6813;60.352;15.746;2022-08-25T17:05:31;2.20;;;1.10;;
13481;SDS011;6813;60.352;15.746;2022-08-25T17:07:58;1.90;;;1.10;;
13481;SDS011;6813;60.352;15.746;2022-08-25T17:10:44;3.33;;;1.30;;
13481;SDS011;6813;60.352;15.746;2022-08-25T17:13:10;2.30;;;1.20;;
13481;SDS011;6813;60.352;15.746;2022-08-25T17:15:41;4.43;;;1.05;;